sensor_id;sensor_type;location;lat;lon;timestamp;temperature;humidity
16814;DHT22;8524;57.650;11.926;2023-05-07T00:00:56;4.90;99.90
16814;DHT22;8524;57.650;11.926;2023-05-07T00:03:25;4.90;99.90
16814;DHT22;8524;57.650;11.926;2023-05-07T00:05:52;4.80;99.90
16814;DHT22;8524;57.650;11.926;2023-05-07T00:08:19;4.60;99.90
16814;DHT22;8524;57.650;11.926;2023-05-07T00:10:47;4.50;99.90
16814;DHT22;8524;57.650;11.926;2023-05-07T00:13:14;4.50;99.90
16814;DHT22;8524;57.650;11.926;2023-05-07T00:15:41;4.40;99.90
16814;DHT22;8524;57.650;11.926;2023-05-07T00:18:09;4.30;99.90
16814;DHT22;8524;57.650;11.926;2023-05-07T00:20:36;4.20;99.90
16814;DHT22;8524;57.650;11.926;2023-05-07T00:23:03;4.10;99.90
16814;DHT22;8524;57.650;11.926;2023-05-07T00:25:30;4.20;99.90
16814;DHT22;8524;57.650;11.926;2023-05-07T00:27:57;4.10;99.90
16814;DHT22;8524;57.650;11.926;2023-05-07T00:30:29;4.10;99.90
16814;DHT22;8524;57.650;11.926;2023-05-07T00:32:56;4.10;99.90
16814;DHT22;8524;57.650;11.926;2023-05-07T00:35:24;4.00;99.90
16814;DHT22;8524;57.650;11.926;2023-05-07T00:37:51;3.90;99.90
16814;DHT22;8524;57.650;11.926;2023-05-07T00:40:18;3.80;99.90
16814;DHT22;8524;57.650;11.926;2023-05-07T00:42:45;3.70;99.90
16814;DHT22;8524;57.650;11.926;2023-05-07T00:45:14;3.70;99.90
16814;DHT22;8524;57.650;11.926;2023-05-07T00:47:42;3.70;99.90
16814;DHT22;8524;57.650;11.926;2023-05-07T00:50:10;3.70;99.90
16814;DHT22;8524;57.650;11.926;2023-05-07T00:52:39;3.70;99.90
16814;DHT22;8524;57.650;11.926;2023-05-07T00:55:07;3.70;99.90
16814;DHT22;8524;57.650;11.926;2023-05-07T00:57:36;3.70;99.90
16814;DHT22;8524;57.650;11.926;2023-05-07T01:00:04;3.60;99.90
16814;DHT22;8524;57.650;11.926;2023-05-07T01:02:32;3.50;99.90
16814;DHT22;8524;57.650;11.926;2023-05-07T01:05:00;3.50;99.90
16814;DHT22;8524;57.650;11.926;2023-05-07T01:07:27;3.40;99.90
16814;DHT22;8524;57.650;11.926;2023-05-07T01:09:56;3.30;99.90
16814;DHT22;8524;57.650;11.926;2023-05-07T01:12:24;3.20;99.90
16814;DHT22;8524;57.650;11.926;2023-05-07T01:14:52;3.20;99.90
16814;DHT22;8524;57.650;11.926;2023-05-07T01:17:19;3.20;99.90
16814;DHT22;8524;57.650;11.926;2023-05-07T01:19:46;3.10;99.90
16814;DHT22;8524;57.650;11.926;2023-05-07T01:22:15;3.10;99.90
16814;DHT22;8524;57.650;11.926;2023-05-07T01:24:44;3.10;99.90
16814;DHT22;8524;57.650;11.926;2023-05-07T01:27:11;3.20;99.90
16814;DHT22;8524;57.650;11.926;2023-05-07T01:29:38;3.20;99.90
16814;DHT22;8524;57.650;11.926;2023-05-07T01:32:06;3.10;99.90
16814;DHT22;8524;57.650;11.926;2023-05-07T01:34:34;3.00;99.90
16814;DHT22;8524;57.650;11.926;2023-05-07T01:37:03;3.00;99.90
16814;DHT22;8524;57.650;11.926;2023-05-07T01:39:30;2.90;99.90
16814;DHT22;8524;57.650;11.926;2023-05-07T01:41:59;2.80;99.90
16814;DHT22;8524;57.650;11.926;2023-05-07T01:44:26;2.70;99.90
16814;DHT22;8524;57.650;11.926;2023-05-07T01:46:54;2.70;99.90
16814;DHT22;8524;57.650;11.926;2023-05-07T01:49:21;2.70;99.90
16814;DHT22;8524;57.650;11.926;2023-05-07T01:51:48;2.70;99.90
16814;DHT22;8524;57.650;11.926;2023-05-07T01:54:15;2.60;99.90
16814;DHT22;8524;57.650;11.926;2023-05-07T01:56:43;2.60;99.90
16814;DHT22;8524;57.650;11.926;2023-05-07T01:59:12;2.50;99.90
16814;DHT22;8524;57.650;11.926;2023-05-07T02:01:39;2.50;99.90
16814;DHT22;8524;57.650;11.926;2023-05-07T02:04:06;2.50;99.90
16814;DHT22;8524;57.650;11.926;2023-05-07T02:06:33;2.60;99.90
16814;DHT22;8524;57.650;11.926;2023-05-07T02:09:00;2.60;99.90
16814;DHT22;8524;57.650;11.926;2023-05-07T02:11:27;2.70;99.90
16814;DHT22;8524;57.650;11.926;2023-05-07T02:13:54;2.80;99.90
16814;DHT22;8524;57.650;11.926;2023-05-07T02:16:22;2.80;99.90
16814;DHT22;8524;57.650;11.926;2023-05-07T02:18:49;2.70;99.90
16814;DHT22;8524;57.650;11.926;2023-05-07T02:21:16;2.80;99.90
16814;DHT22;8524;57.650;11.926;2023-05-07T02:23:43;2.80;99.90
16814;DHT22;8524;57.650;11.926;2023-05-07T02:26:11;2.80;99.90
16814;DHT22;8524;57.650;11.926;2023-05-07T02:28:38;2.90;99.90
16814;DHT22;8524;57.650;11.926;2023-05-07T02:31:05;2.80;99.90
16814;DHT22;8524;57.650;11.926;2023-05-07T02:33:33;2.70;99.90
16814;DHT22;8524;57.650;11.926;2023-05-07T02:36:09;2.70;99.90
16814;DHT22;8524;57.650;11.926;2023-05-07T02:38:36;2.70;99.90
16814;DHT22;8524;57.650;11.926;2023-05-07T02:41:03;2.80;99.90
16814;DHT22;8524;57.650;11.926;2023-05-07T02:43:31;2.80;99.90
16814;DHT22;8524;57.650;11.926;2023-05-07T02:46:01;2.90;99.90
16814;DHT22;8524;57.650;11.926;2023-05-07T02:48:29;2.90;99.90
16814;DHT22;8524;57.650;11.926;2023-05-07T02:50:57;2.80;99.90
16814;DHT22;8524;57.650;11.926;2023-05-07T02:53:24;2.70;99.90
16814;DHT22;8524;57.650;11.926;2023-05-07T02:55:52;2.70;99.90
16814;DHT22;8524;57.650;11.926;2023-05-07T02:58:19;2.70;99.90
16814;DHT22;8524;57.650;11.926;2023-05-07T03:00:46;2.70;99.90
16814;DHT22;8524;57.650;11.926;2023-05-07T03:03:14;2.60;99.90
16814;DHT22;8524;57.650;11.926;2023-05-07T03:05:41;2.60;99.90
16814;DHT22;8524;57.650;11.926;2023-05-07T03:08:09;2.60;99.90
16814;DHT22;8524;57.650;11.926;2023-05-07T03:10:37;2.60;99.90
16814;DHT22;8524;57.650;11.926;2023-05-07T03:13:04;2.70;99.90
16814;DHT22;8524;57.650;11.926;2023-05-07T03:15:31;2.60;99.90
16814;DHT22;8524;57.650;11.926;2023-05-07T03:17:58;2.60;99.90
16814;DHT22;8524;57.650;11.926;2023-05-07T03:20:25;2.50;99.90
16814;DHT22;8524;57.650;11.926;2023-05-07T03:22:52;2.50;99.90
16814;DHT22;8524;57.650;11.926;2023-05-07T03:25:20;2.40;99.90
16814;DHT22;8524;57.650;11.926;2023-05-07T03:27:47;2.30;99.90
16814;DHT22;8524;57.650;11.926;2023-05-07T03:30:14;2.30;99.90
16814;DHT22;8524;57.650;11.926;2023-05-07T03:32:41;2.30;99.90
16814;DHT22;8524;57.650;11.926;2023-05-07T03:35:08;2.30;99.90
16814;DHT22;8524;57.650;11.926;2023-05-07T03:37:37;2.40;99.90
16814;DHT22;8524;57.650;11.926;2023-05-07T03:40:05;2.40;99.90
16814;DHT22;8524;57.650;11.926;2023-05-07T03:42:34;2.30;99.90
16814;DHT22;8524;57.650;11.926;2023-05-07T03:45:01;2.40;99.90
16814;DHT22;8524;57.650;11.926;2023-05-07T03:47:29;2.40;99.90
16814;DHT22;8524;57.650;11.926;2023-05-07T03:49:56;2.30;99.90
16814;DHT22;8524;57.650;11.926;2023-05-07T03:52:23;2.40;99.90
16814;DHT22;8524;57.650;11.926;2023-05-07T03:54:52;2.50;99.90
16814;DHT22;8524;57.650;11.926;2023-05-07T03:57:19;2.70;99.90
16814;DHT22;8524;57.650;11.926;2023-05-07T03:59:48;2.90;99.90
16814;DHT22;8524;57.650;11.926;2023-05-07T04:02:15;3.20;99.90
16814;DHT22;8524;57.650;11.926;2023-05-07T04:04:42;3.40;99.90
16814;DHT22;8524;57.650;11.926;2023-05-07T04:07:09;3.70;99.90
16814;DHT22;8524;57.650;11.926;2023-05-07T04:09:36;3.90;99.90
16814;DHT22;8524;57.650;11.926;2023-05-07T04:12:04;4.10;99.90
16814;DHT22;8524;57.650;11.926;2023-05-07T04:14:31;4.30;99.90
16814;DHT22;8524;57.650;11.926;2023-05-07T04:17:00;4.50;99.90
16814;DHT22;8524;57.650;11.926;2023-05-07T04:19:28;4.70;99.90
16814;DHT22;8524;57.650;11.926;2023-05-07T04:21:55;4.70;99.90
16814;DHT22;8524;57.650;11.926;2023-05-07T04:24:22;4.70;99.90
16814;DHT22;8524;57.650;11.926;2023-05-07T04:26:49;4.90;99.90
16814;DHT22;8524;57.650;11.926;2023-05-07T04:29:16;4.80;99.90
16814;DHT22;8524;57.650;11.926;2023-05-07T04:31:43;4.70;99.90
16814;DHT22;8524;57.650;11.926;2023-05-07T04:34:12;4.70;99.90
16814;DHT22;8524;57.650;11.926;2023-05-07T04:36:39;4.60;99.90
16814;DHT22;8524;57.650;11.926;2023-05-07T04:39:07;4.70;99.90
16814;DHT22;8524;57.650;11.926;2023-05-07T04:41:35;4.70;99.90
16814;DHT22;8524;57.650;11.926;2023-05-07T04:44:02;4.70;99.90
16814;DHT22;8524;57.650;11.926;2023-05-07T04:46:32;4.60;99.90
16814;DHT22;8524;57.650;11.926;2023-05-07T04:48:59;4.80;99.90
16814;DHT22;8524;57.650;11.926;2023-05-07T04:51:27;4.90;99.90
16814;DHT22;8524;57.650;11.926;2023-05-07T04:53:54;5.00;99.90
16814;DHT22;8524;57.650;11.926;2023-05-07T04:56:21;5.20;99.90
16814;DHT22;8524;57.650;11.926;2023-05-07T04:58:48;5.20;99.90
16814;DHT22;8524;57.650;11.926;2023-05-07T05:01:15;5.30;99.90
16814;DHT22;8524;57.650;11.926;2023-05-07T05:03:42;5.40;99.90
16814;DHT22;8524;57.650;11.926;2023-05-07T05:06:10;5.50;99.90
16814;DHT22;8524;57.650;11.926;2023-05-07T05:08:38;5.50;99.90
16814;DHT22;8524;57.650;11.926;2023-05-07T05:11:05;5.70;99.90
16814;DHT22;8524;57.650;11.926;2023-05-07T05:13:32;5.70;99.90
16814;DHT22;8524;57.650;11.926;2023-05-07T05:15:59;5.80;99.90
16814;DHT22;8524;57.650;11.926;2023-05-07T05:18:26;5.90;99.90
16814;DHT22;8524;57.650;11.926;2023-05-07T05:20:53;6.10;99.90
16814;DHT22;8524;57.650;11.926;2023-05-07T05:23:21;6.10;99.90
16814;DHT22;8524;57.650;11.926;2023-05-07T05:25:49;6.30;99.90
16814;DHT22;8524;57.650;11.926;2023-05-07T05:28:16;6.40;99.90
16814;DHT22;8524;57.650;11.926;2023-05-07T05:30:43;6.40;99.90
16814;DHT22;8524;57.650;11.926;2023-05-07T05:33:10;6.60;99.90
16814;DHT22;8524;57.650;11.926;2023-05-07T05:35:37;6.80;99.90
16814;DHT22;8524;57.650;11.926;2023-05-07T05:38:04;6.80;99.90
16814;DHT22;8524;57.650;11.926;2023-05-07T05:40:31;7.00;99.90
16814;DHT22;8524;57.650;11.926;2023-05-07T05:43:00;7.40;99.90
16814;DHT22;8524;57.650;11.926;2023-05-07T05:45:27;7.40;99.90
16814;DHT22;8524;57.650;11.926;2023-05-07T05:47:56;7.40;99.90
16814;DHT22;8524;57.650;11.926;2023-05-07T05:50:23;7.70;99.90
16814;DHT22;8524;57.650;11.926;2023-05-07T05:52:50;8.10;99.90
16814;DHT22;8524;57.650;11.926;2023-05-07T05:55:17;8.40;99.90
16814;DHT22;8524;57.650;11.926;2023-05-07T05:57:44;8.70;99.90
16814;DHT22;8524;57.650;11.926;2023-05-07T06:00:13;8.80;99.90
16814;DHT22;8524;57.650;11.926;2023-05-07T06:02:41;8.50;99.90
16814;DHT22;8524;57.650;11.926;2023-05-07T06:05:09;8.80;99.90
16814;DHT22;8524;57.650;11.926;2023-05-07T06:07:36;9.10;99.90
16814;DHT22;8524;57.650;11.926;2023-05-07T06:10:03;9.50;99.90
16814;DHT22;8524;57.650;11.926;2023-05-07T06:12:31;9.40;99.80
16814;DHT22;8524;57.650;11.926;2023-05-07T06:14:58;9.50;99.90
16814;DHT22;8524;57.650;11.926;2023-05-07T06:17:26;9.80;99.90
16814;DHT22;8524;57.650;11.926;2023-05-07T06:19:53;10.20;99.90
16814;DHT22;8524;57.650;11.926;2023-05-07T06:22:20;9.80;98.10
16814;DHT22;8524;57.650;11.926;2023-05-07T06:24:47;10.20;99.90
16814;DHT22;8524;57.650;11.926;2023-05-07T06:27:14;10.10;98.00
16814;DHT22;8524;57.650;11.926;2023-05-07T06:29:41;10.20;96.60
16814;DHT22;8524;57.650;11.926;2023-05-07T06:32:09;10.70;97.70
16814;DHT22;8524;57.650;11.926;2023-05-07T06:34:38;11.00;98.50
16814;DHT22;8524;57.650;11.926;2023-05-07T06:37:05;11.40;97.00
16814;DHT22;8524;57.650;11.926;2023-05-07T06:39:32;11.40;94.60
16814;DHT22;8524;57.650;11.926;2023-05-07T06:42:00;11.20;95.90
16814;DHT22;8524;57.650;11.926;2023-05-07T06:44:27;11.70;96.70
16814;DHT22;8524;57.650;11.926;2023-05-07T06:46:53;11.70;94.20
16814;DHT22;8524;57.650;11.926;2023-05-07T06:49:20;11.80;93.80
16814;DHT22;8524;57.650;11.926;2023-05-07T06:51:49;12.20;93.30
16814;DHT22;8524;57.650;11.926;2023-05-07T06:54:16;12.40;94.10
16814;DHT22;8524;57.650;11.926;2023-05-07T06:56:43;12.10;92.40
16814;DHT22;8524;57.650;11.926;2023-05-07T06:59:10;12.10;93.30
16814;DHT22;8524;57.650;11.926;2023-05-07T07:01:37;11.10;90.70
16814;DHT22;8524;57.650;11.926;2023-05-07T07:04:04;11.40;95.20
16814;DHT22;8524;57.650;11.926;2023-05-07T07:06:32;11.80;94.00
16814;DHT22;8524;57.650;11.926;2023-05-07T07:09:00;12.00;92.20
16814;DHT22;8524;57.650;11.926;2023-05-07T07:11:27;12.10;91.20
16814;DHT22;8524;57.650;11.926;2023-05-07T07:13:54;11.80;91.40
16814;DHT22;8524;57.650;11.926;2023-05-07T07:16:22;11.70;90.60
16814;DHT22;8524;57.650;11.926;2023-05-07T07:18:49;12.20;93.30
16814;DHT22;8524;57.650;11.926;2023-05-07T07:21:16;12.10;86.60
16814;DHT22;8524;57.650;11.926;2023-05-07T07:23:43;12.30;84.90
16814;DHT22;8524;57.650;11.926;2023-05-07T07:26:11;12.10;83.60
16814;DHT22;8524;57.650;11.926;2023-05-07T07:28:42;12.60;90.70
16814;DHT22;8524;57.650;11.926;2023-05-07T07:31:10;12.80;90.90
16814;DHT22;8524;57.650;11.926;2023-05-07T07:33:37;12.90;81.80
16814;DHT22;8524;57.650;11.926;2023-05-07T07:36:05;12.80;85.20
16814;DHT22;8524;57.650;11.926;2023-05-07T07:38:32;12.50;79.70
16814;DHT22;8524;57.650;11.926;2023-05-07T07:41:00;12.60;77.80
16814;DHT22;8524;57.650;11.926;2023-05-07T07:43:28;12.30;76.00
16814;DHT22;8524;57.650;11.926;2023-05-07T07:45:55;11.90;82.80
16814;DHT22;8524;57.650;11.926;2023-05-07T07:48:22;12.50;86.10
16814;DHT22;8524;57.650;11.926;2023-05-07T07:50:49;12.80;77.30
16814;DHT22;8524;57.650;11.926;2023-05-07T07:53:17;13.00;69.60
16814;DHT22;8524;57.650;11.926;2023-05-07T07:55:44;12.70;67.30
16814;DHT22;8524;57.650;11.926;2023-05-07T07:58:11;12.90;75.00
16814;DHT22;8524;57.650;11.926;2023-05-07T08:00:40;12.90;69.30
16814;DHT22;8524;57.650;11.926;2023-05-07T08:03:09;13.00;74.80
16814;DHT22;8524;57.650;11.926;2023-05-07T08:05:36;12.40;74.40
16814;DHT22;8524;57.650;11.926;2023-05-07T08:08:04;12.30;72.30
16814;DHT22;8524;57.650;11.926;2023-05-07T08:10:32;12.60;78.90
16814;DHT22;8524;57.650;11.926;2023-05-07T08:13:00;13.30;76.30
16814;DHT22;8524;57.650;11.926;2023-05-07T08:15:29;13.50;66.10
16814;DHT22;8524;57.650;11.926;2023-05-07T08:17:57;13.50;63.80
16814;DHT22;8524;57.650;11.926;2023-05-07T08:20:25;13.50;70.20
16814;DHT22;8524;57.650;11.926;2023-05-07T08:22:52;13.40;68.40
16814;DHT22;8524;57.650;11.926;2023-05-07T08:25:19;13.60;73.00
16814;DHT22;8524;57.650;11.926;2023-05-07T08:27:46;13.00;60.30
16814;DHT22;8524;57.650;11.926;2023-05-07T08:30:14;13.70;75.50
16814;DHT22;8524;57.650;11.926;2023-05-07T08:32:41;14.20;70.10
16814;DHT22;8524;57.650;11.926;2023-05-07T08:35:10;14.50;60.10
16814;DHT22;8524;57.650;11.926;2023-05-07T08:37:37;14.30;57.70
16814;DHT22;8524;57.650;11.926;2023-05-07T08:40:05;14.70;56.80
16814;DHT22;8524;57.650;11.926;2023-05-07T08:42:35;14.80;52.10
16814;DHT22;8524;57.650;11.926;2023-05-07T08:45:04;15.20;48.70
16814;DHT22;8524;57.650;11.926;2023-05-07T08:47:38;14.80;47.30
16814;DHT22;8524;57.650;11.926;2023-05-07T08:50:07;14.80;47.60
16814;DHT22;8524;57.650;11.926;2023-05-07T08:52:36;15.00;62.30
16814;DHT22;8524;57.650;11.926;2023-05-07T08:55:04;15.00;41.90
16814;DHT22;8524;57.650;11.926;2023-05-07T08:57:31;14.80;33.00
16814;DHT22;8524;57.650;11.926;2023-05-07T08:59:58;14.80;40.40
16814;DHT22;8524;57.650;11.926;2023-05-07T09:02:25;14.60;35.00
16814;DHT22;8524;57.650;11.926;2023-05-07T09:04:52;14.80;40.90
16814;DHT22;8524;57.650;11.926;2023-05-07T09:07:20;14.80;42.90
16814;DHT22;8524;57.650;11.926;2023-05-07T09:09:48;15.20;35.70
16814;DHT22;8524;57.650;11.926;2023-05-07T09:12:15;15.20;47.10
16814;DHT22;8524;57.650;11.926;2023-05-07T09:14:42;15.10;42.60
16814;DHT22;8524;57.650;11.926;2023-05-07T09:17:09;15.00;37.80
16814;DHT22;8524;57.650;11.926;2023-05-07T09:19:36;15.40;45.10
16814;DHT22;8524;57.650;11.926;2023-05-07T09:22:04;15.40;40.30
16814;DHT22;8524;57.650;11.926;2023-05-07T09:24:32;15.70;41.50
16814;DHT22;8524;57.650;11.926;2023-05-07T09:27:04;16.20;50.00
16814;DHT22;8524;57.650;11.926;2023-05-07T09:29:32;15.90;26.80
16814;DHT22;8524;57.650;11.926;2023-05-07T09:32:01;15.80;28.30
16814;DHT22;8524;57.650;11.926;2023-05-07T09:34:29;16.10;35.60
16814;DHT22;8524;57.650;11.926;2023-05-07T09:36:57;16.00;30.60
16814;DHT22;8524;57.650;11.926;2023-05-07T09:39:25;16.20;22.40
16814;DHT22;8524;57.650;11.926;2023-05-07T09:41:52;16.30;37.00
16814;DHT22;8524;57.650;11.926;2023-05-07T09:44:21;15.90;18.60
16814;DHT22;8524;57.650;11.926;2023-05-07T09:46:53;15.70;24.70
16814;DHT22;8524;57.650;11.926;2023-05-07T09:49:22;16.00;27.40
16814;DHT22;8524;57.650;11.926;2023-05-07T09:51:51;16.40;26.40
16814;DHT22;8524;57.650;11.926;2023-05-07T09:54:19;15.90;17.60
16814;DHT22;8524;57.650;11.926;2023-05-07T09:56:48;16.00;25.10
16814;DHT22;8524;57.650;11.926;2023-05-07T09:59:16;16.70;29.30
16814;DHT22;8524;57.650;11.926;2023-05-07T10:01:45;16.90;32.80
16814;DHT22;8524;57.650;11.926;2023-05-07T10:04:12;17.20;33.30
16814;DHT22;8524;57.650;11.926;2023-05-07T10:06:40;17.00;12.40
16814;DHT22;8524;57.650;11.926;2023-05-07T10:09:08;16.80;21.10
16814;DHT22;8524;57.650;11.926;2023-05-07T10:11:37;17.00;15.30
16814;DHT22;8524;57.650;11.926;2023-05-07T10:14:04;16.90;14.70
16814;DHT22;8524;57.650;11.926;2023-05-07T10:16:34;16.60;24.70
16814;DHT22;8524;57.650;11.926;2023-05-07T10:19:04;16.40;22.90
16814;DHT22;8524;57.650;11.926;2023-05-07T10:21:35;16.60;26.80
16814;DHT22;8524;57.650;11.926;2023-05-07T10:24:05;16.90;24.40
16814;DHT22;8524;57.650;11.926;2023-05-07T10:26:36;16.90;26.80
16814;DHT22;8524;57.650;11.926;2023-05-07T10:29:07;17.50;30.00
16814;DHT22;8524;57.650;11.926;2023-05-07T10:31:49;17.50;26.80
16814;DHT22;8524;57.650;11.926;2023-05-07T10:34:24;17.10;26.60
16814;DHT22;8524;57.650;11.926;2023-05-07T10:36:54;16.90;24.00
16814;DHT22;8524;57.650;11.926;2023-05-07T10:39:22;17.00;31.70
16814;DHT22;8524;57.650;11.926;2023-05-07T10:41:50;17.10;24.40
16814;DHT22;8524;57.650;11.926;2023-05-07T10:44:26;17.10;30.00
16814;DHT22;8524;57.650;11.926;2023-05-07T10:47:05;17.10;25.10
16814;DHT22;8524;57.650;11.926;2023-05-07T10:49:37;17.70;37.30
16814;DHT22;8524;57.650;11.926;2023-05-07T10:52:15;17.60;24.40
16814;DHT22;8524;57.650;11.926;2023-05-07T10:54:42;18.20;21.80
16814;DHT22;8524;57.650;11.926;2023-05-07T10:57:35;17.50;17.50
16814;DHT22;8524;57.650;11.926;2023-05-07T11:00:02;17.00;12.70
16814;DHT22;8524;57.650;11.926;2023-05-07T11:03:06;17.90;24.50
16814;DHT22;8524;57.650;11.926;2023-05-07T11:05:35;17.90;21.40
16814;DHT22;8524;57.650;11.926;2023-05-07T11:08:03;17.50;22.80
16814;DHT22;8524;57.650;11.926;2023-05-07T11:10:50;17.60;19.20
16814;DHT22;8524;57.650;11.926;2023-05-07T11:13:40;18.10;23.90
16814;DHT22;8524;57.650;11.926;2023-05-07T11:16:17;18.40;21.40
16814;DHT22;8524;57.650;11.926;2023-05-07T11:18:48;18.40;27.10
16814;DHT22;8524;57.650;11.926;2023-05-07T11:21:35;18.50;20.70
16814;DHT22;8524;57.650;11.926;2023-05-07T11:24:03;18.50;23.80
16814;DHT22;8524;57.650;11.926;2023-05-07T11:26:40;18.80;19.10
16814;DHT22;8524;57.650;11.926;2023-05-07T11:29:11;19.00;21.40
16814;DHT22;8524;57.650;11.926;2023-05-07T11:31:39;18.50;18.50
16814;DHT22;8524;57.650;11.926;2023-05-07T11:34:06;18.40;20.20
16814;DHT22;8524;57.650;11.926;2023-05-07T11:36:36;18.00;16.60
16814;DHT22;8524;57.650;11.926;2023-05-07T11:39:24;17.60;21.60
16814;DHT22;8524;57.650;11.926;2023-05-07T11:41:51;17.50;22.40
16814;DHT22;8524;57.650;11.926;2023-05-07T11:44:18;17.50;19.60
16814;DHT22;8524;57.650;11.926;2023-05-07T11:46:45;17.50;22.80
16814;DHT22;8524;57.650;11.926;2023-05-07T11:49:13;17.60;21.60
16814;DHT22;8524;57.650;11.926;2023-05-07T11:51:42;17.70;20.30
16814;DHT22;8524;57.650;11.926;2023-05-07T11:54:10;17.70;23.50
16814;DHT22;8524;57.650;11.926;2023-05-07T11:56:39;18.00;21.00
16814;DHT22;8524;57.650;11.926;2023-05-07T11:59:06;18.50;19.00
16814;DHT22;8524;57.650;11.926;2023-05-07T12:01:35;18.60;20.50
16814;DHT22;8524;57.650;11.926;2023-05-07T12:04:03;18.40;16.90
16814;DHT22;8524;57.650;11.926;2023-05-07T12:06:30;18.70;21.40
16814;DHT22;8524;57.650;11.926;2023-05-07T12:08:59;19.10;24.40
16814;DHT22;8524;57.650;11.926;2023-05-07T12:11:27;19.00;21.80
16814;DHT22;8524;57.650;11.926;2023-05-07T12:13:54;18.80;25.40
16814;DHT22;8524;57.650;11.926;2023-05-07T12:16:22;18.90;23.20
16814;DHT22;8524;57.650;11.926;2023-05-07T12:18:50;19.00;19.30
16814;DHT22;8524;57.650;11.926;2023-05-07T12:21:20;18.40;20.50
16814;DHT22;8524;57.650;11.926;2023-05-07T12:23:48;18.60;21.80
16814;DHT22;8524;57.650;11.926;2023-05-07T12:26:17;18.80;20.20
16814;DHT22;8524;57.650;11.926;2023-05-07T12:28:46;18.70;23.70
16814;DHT22;8524;57.650;11.926;2023-05-07T12:31:14;18.90;23.20
16814;DHT22;8524;57.650;11.926;2023-05-07T12:33:42;19.00;21.90
16814;DHT22;8524;57.650;11.926;2023-05-07T12:36:11;18.80;23.30
16814;DHT22;8524;57.650;11.926;2023-05-07T12:38:39;18.80;22.20
16814;DHT22;8524;57.650;11.926;2023-05-07T12:41:08;18.60;27.80
16814;DHT22;8524;57.650;11.926;2023-05-07T12:43:36;18.80;28.70
16814;DHT22;8524;57.650;11.926;2023-05-07T12:46:05;18.70;22.30
16814;DHT22;8524;57.650;11.926;2023-05-07T12:48:32;18.60;24.30
16814;DHT22;8524;57.650;11.926;2023-05-07T12:51:01;18.50;26.60
16814;DHT22;8524;57.650;11.926;2023-05-07T12:53:29;18.40;24.30
16814;DHT22;8524;57.650;11.926;2023-05-07T12:55:58;18.30;27.00
16814;DHT22;8524;57.650;11.926;2023-05-07T12:58:27;18.20;25.30
16814;DHT22;8524;57.650;11.926;2023-05-07T13:00:56;18.20;28.90
16814;DHT22;8524;57.650;11.926;2023-05-07T13:03:27;18.10;25.90
16814;DHT22;8524;57.650;11.926;2023-05-07T13:05:55;17.90;26.00
16814;DHT22;8524;57.650;11.926;2023-05-07T13:08:31;17.60;24.40
16814;DHT22;8524;57.650;11.926;2023-05-07T13:10:59;17.80;29.10
16814;DHT22;8524;57.650;11.926;2023-05-07T13:13:29;18.00;28.10
16814;DHT22;8524;57.650;11.926;2023-05-07T13:15:57;18.10;22.10
16814;DHT22;8524;57.650;11.926;2023-05-07T13:18:25;17.90;25.10
16814;DHT22;8524;57.650;11.926;2023-05-07T13:20:52;17.80;24.10
16814;DHT22;8524;57.650;11.926;2023-05-07T13:23:19;17.70;25.80
16814;DHT22;8524;57.650;11.926;2023-05-07T13:25:47;17.70;26.70
16814;DHT22;8524;57.650;11.926;2023-05-07T13:28:14;17.90;24.80
16814;DHT22;8524;57.650;11.926;2023-05-07T13:30:41;17.80;24.50
16814;DHT22;8524;57.650;11.926;2023-05-07T13:33:09;17.80;24.90
16814;DHT22;8524;57.650;11.926;2023-05-07T13:35:36;17.60;29.80
16814;DHT22;8524;57.650;11.926;2023-05-07T13:38:03;17.50;29.40
16814;DHT22;8524;57.650;11.926;2023-05-07T13:40:30;17.50;34.70
16814;DHT22;8524;57.650;11.926;2023-05-07T13:42:58;17.60;33.50
16814;DHT22;8524;57.650;11.926;2023-05-07T13:45:26;17.40;32.00
16814;DHT22;8524;57.650;11.926;2023-05-07T13:47:55;17.20;33.20
16814;DHT22;8524;57.650;11.926;2023-05-07T13:50:24;17.20;36.70
16814;DHT22;8524;57.650;11.926;2023-05-07T13:52:52;17.10;37.50
16814;DHT22;8524;57.650;11.926;2023-05-07T13:55:20;17.20;35.90
16814;DHT22;8524;57.650;11.926;2023-05-07T13:57:53;17.20;34.00
16814;DHT22;8524;57.650;11.926;2023-05-07T14:00:21;17.00;31.40
16814;DHT22;8524;57.650;11.926;2023-05-07T14:02:48;16.80;38.10
16814;DHT22;8524;57.650;11.926;2023-05-07T14:05:15;16.60;42.20
16814;DHT22;8524;57.650;11.926;2023-05-07T14:07:43;16.90;39.10
16814;DHT22;8524;57.650;11.926;2023-05-07T14:10:10;17.00;36.30
16814;DHT22;8524;57.650;11.926;2023-05-07T14:12:38;17.00;39.40
16814;DHT22;8524;57.650;11.926;2023-05-07T14:15:06;16.90;42.90
16814;DHT22;8524;57.650;11.926;2023-05-07T14:17:34;16.80;44.00
16814;DHT22;8524;57.650;11.926;2023-05-07T14:20:01;16.70;49.00
16814;DHT22;8524;57.650;11.926;2023-05-07T14:22:28;16.80;53.90
16814;DHT22;8524;57.650;11.926;2023-05-07T14:24:56;16.90;51.40
16814;DHT22;8524;57.650;11.926;2023-05-07T14:27:23;17.20;53.00
16814;DHT22;8524;57.650;11.926;2023-05-07T14:29:50;17.60;53.20
16814;DHT22;8524;57.650;11.926;2023-05-07T14:32:17;17.50;54.60
16814;DHT22;8524;57.650;11.926;2023-05-07T14:34:44;17.60;57.80
16814;DHT22;8524;57.650;11.926;2023-05-07T14:37:12;17.40;52.40
16814;DHT22;8524;57.650;11.926;2023-05-07T14:39:39;17.60;56.50
16814;DHT22;8524;57.650;11.926;2023-05-07T14:42:08;17.50;54.50
16814;DHT22;8524;57.650;11.926;2023-05-07T14:44:35;17.40;53.40
16814;DHT22;8524;57.650;11.926;2023-05-07T14:47:02;17.50;54.20
16814;DHT22;8524;57.650;11.926;2023-05-07T14:49:29;17.60;54.50
16814;DHT22;8524;57.650;11.926;2023-05-07T14:51:57;17.40;53.80
16814;DHT22;8524;57.650;11.926;2023-05-07T14:54:25;17.40;57.90
16814;DHT22;8524;57.650;11.926;2023-05-07T14:56:52;17.70;56.00
16814;DHT22;8524;57.650;11.926;2023-05-07T14:59:21;17.60;55.50
16814;DHT22;8524;57.650;11.926;2023-05-07T15:01:50;17.40;57.10
16814;DHT22;8524;57.650;11.926;2023-05-07T15:04:17;17.30;57.80
16814;DHT22;8524;57.650;11.926;2023-05-07T15:06:44;17.20;58.20
16814;DHT22;8524;57.650;11.926;2023-05-07T15:09:11;17.10;61.90
16814;DHT22;8524;57.650;11.926;2023-05-07T15:11:38;17.40;57.30
16814;DHT22;8524;57.650;11.926;2023-05-07T15:14:05;17.30;60.10
16814;DHT22;8524;57.650;11.926;2023-05-07T15:16:34;17.60;63.50
16814;DHT22;8524;57.650;11.926;2023-05-07T15:19:01;17.60;59.20
16814;DHT22;8524;57.650;11.926;2023-05-07T15:21:28;17.50;57.80
16814;DHT22;8524;57.650;11.926;2023-05-07T15:23:56;17.60;58.10
16814;DHT22;8524;57.650;11.926;2023-05-07T15:26:23;17.20;55.50
16814;DHT22;8524;57.650;11.926;2023-05-07T15:28:51;17.10;59.50
16814;DHT22;8524;57.650;11.926;2023-05-07T15:31:18;17.10;62.30
16814;DHT22;8524;57.650;11.926;2023-05-07T15:33:46;17.10;58.80
16814;DHT22;8524;57.650;11.926;2023-05-07T15:36:14;17.00;63.70
16814;DHT22;8524;57.650;11.926;2023-05-07T15:38:41;17.20;56.50
16814;DHT22;8524;57.650;11.926;2023-05-07T15:41:08;16.80;61.60
16814;DHT22;8524;57.650;11.926;2023-05-07T15:43:44;16.90;60.50